sensor_id;sensor_type;location;lat;lon;timestamp;temperature;humidity
46608;DHT22;32330;51.936;7.184;2023-09-18T00:00:54;19.90;99.10
46608;DHT22;32330;51.936;7.184;2023-09-18T00:03:22;19.90;98.80
46608;DHT22;32330;51.936;7.184;2023-09-18T00:05:52;19.90;98.70
46608;DHT22;32330;51.936;7.184;2023-09-18T00:08:19;19.90;98.20
46608;DHT22;32330;51.936;7.184;2023-09-18T00:10:47;19.90;98.30
46608;DHT22;32330;51.936;7.184;2023-09-18T00:13:16;19.90;97.50
46608;DHT22;32330;51.936;7.184;2023-09-18T00:15:43;20.00;97.60
46608;DHT22;32330;51.936;7.184;2023-09-18T00:18:13;19.90;97.10
46608;DHT22;32330;51.936;7.184;2023-09-18T00:20:41;19.90;96.50
46608;DHT22;32330;51.936;7.184;2023-09-18T00:23:09;19.90;96.40
46608;DHT22;32330;51.936;7.184;2023-09-18T00:25:37;19.90;95.60
46608;DHT22;32330;51.936;7.184;2023-09-18T00:28:06;19.90;93.20
46608;DHT22;32330;51.936;7.184;2023-09-18T00:30:38;19.90;95.90
46608;DHT22;32330;51.936;7.184;2023-09-18T00:33:09;19.90;95.70
46608;DHT22;32330;51.936;7.184;2023-09-18T00:35:36;19.90;94.40
46608;DHT22;32330;51.936;7.184;2023-09-18T00:38:03;19.90;93.00
46608;DHT22;32330;51.936;7.184;2023-09-18T00:40:34;19.90;93.40
46608;DHT22;32330;51.936;7.184;2023-09-18T00:43:04;19.90;92.40
46608;DHT22;32330;51.936;7.184;2023-09-18T00:45:31;19.90;94.90
46608;DHT22;32330;51.936;7.184;2023-09-18T00:47:59;19.90;93.30
46608;DHT22;32330;51.936;7.184;2023-09-18T00:50:26;20.00;91.90
46608;DHT22;32330;51.936;7.184;2023-09-18T00:52:58;19.90;91.00
46608;DHT22;32330;51.936;7.184;2023-09-18T00:55:27;19.90;91.80
46608;DHT22;32330;51.936;7.184;2023-09-18T00:57:57;20.00;91.20
46608;DHT22;32330;51.936;7.184;2023-09-18T01:00:25;19.90;91.30
46608;DHT22;32330;51.936;7.184;2023-09-18T01:02:54;19.90;91.70
46608;DHT22;32330;51.936;7.184;2023-09-18T01:05:25;19.90;91.80
46608;DHT22;32330;51.936;7.184;2023-09-18T01:07:52;20.00;92.20
46608;DHT22;32330;51.936;7.184;2023-09-18T01:10:21;19.90;91.20
46608;DHT22;32330;51.936;7.184;2023-09-18T01:12:55;19.90;91.10
46608;DHT22;32330;51.936;7.184;2023-09-18T01:15:34;20.00;91.10
46608;DHT22;32330;51.936;7.184;2023-09-18T01:18:02;20.00;90.80
46608;DHT22;32330;51.936;7.184;2023-09-18T01:20:29;19.90;90.80
46608;DHT22;32330;51.936;7.184;2023-09-18T01:22:58;20.00;90.70
46608;DHT22;32330;51.936;7.184;2023-09-18T01:25:25;19.90;91.00
46608;DHT22;32330;51.936;7.184;2023-09-18T01:27:52;19.90;90.50
46608;DHT22;32330;51.936;7.184;2023-09-18T01:30:19;19.90;90.10
46608;DHT22;32330;51.936;7.184;2023-09-18T01:32:47;19.90;90.50
46608;DHT22;32330;51.936;7.184;2023-09-18T01:35:15;19.90;90.10
46608;DHT22;32330;51.936;7.184;2023-09-18T01:37:45;19.90;90.10
46608;DHT22;32330;51.936;7.184;2023-09-18T01:40:13;20.00;90.30
46608;DHT22;32330;51.936;7.184;2023-09-18T01:42:41;20.00;87.90
46608;DHT22;32330;51.936;7.184;2023-09-18T01:45:09;20.00;88.40
46608;DHT22;32330;51.936;7.184;2023-09-18T01:47:36;20.00;87.80
46608;DHT22;32330;51.936;7.184;2023-09-18T01:50:04;19.90;86.10
46608;DHT22;32330;51.936;7.184;2023-09-18T01:52:34;19.90;86.90
46608;DHT22;32330;51.936;7.184;2023-09-18T01:55:01;19.90;86.60
46608;DHT22;32330;51.936;7.184;2023-09-18T01:57:31;20.00;92.00
46608;DHT22;32330;51.936;7.184;2023-09-18T01:59:58;20.00;90.70
46608;DHT22;32330;51.936;7.184;2023-09-18T02:02:27;20.00;90.90
46608;DHT22;32330;51.936;7.184;2023-09-18T02:04:55;20.00;90.40
46608;DHT22;32330;51.936;7.184;2023-09-18T02:07:28;20.00;88.00
46608;DHT22;32330;51.936;7.184;2023-09-18T02:09:57;20.00;86.00
46608;DHT22;32330;51.936;7.184;2023-09-18T02:12:24;20.00;92.50
46608;DHT22;32330;51.936;7.184;2023-09-18T02:14:53;20.10;93.20
46608;DHT22;32330;51.936;7.184;2023-09-18T02:17:23;20.10;92.10
46608;DHT22;32330;51.936;7.184;2023-09-18T02:19:50;20.10;93.20
46608;DHT22;32330;51.936;7.184;2023-09-18T02:22:17;20.20;97.10
46608;DHT22;32330;51.936;7.184;2023-09-18T02:24:44;20.20;99.90
46608;DHT22;32330;51.936;7.184;2023-09-18T02:27:11;20.20;99.90
46608;DHT22;32330;51.936;7.184;2023-09-18T02:29:38;20.20;99.90
46608;DHT22;32330;51.936;7.184;2023-09-18T02:32:06;20.20;99.90
46608;DHT22;32330;51.936;7.184;2023-09-18T02:34:35;20.20;99.90
46608;DHT22;32330;51.936;7.184;2023-09-18T02:37:03;20.20;99.90
46608;DHT22;32330;51.936;7.184;2023-09-18T02:39:30;20.20;99.90
46608;DHT22;32330;51.936;7.184;2023-09-18T02:41:57;20.20;99.90
46608;DHT22;32330;51.936;7.184;2023-09-18T02:44:24;20.20;99.90
46608;DHT22;32330;51.936;7.184;2023-09-18T02:46:51;20.20;99.90
46608;DHT22;32330;51.936;7.184;2023-09-18T02:49:19;20.20;99.90
46608;DHT22;32330;51.936;7.184;2023-09-18T02:51:47;20.30;99.90
46608;DHT22;32330;51.936;7.184;2023-09-18T02:54:14;20.20;99.90
46608;DHT22;32330;51.936;7.184;2023-09-18T02:56:45;20.30;99.90
46608;DHT22;32330;51.936;7.184;2023-09-18T02:59:12;20.30;99.90
46608;DHT22;32330;51.936;7.184;2023-09-18T03:01:39;20.30;99.90
46608;DHT22;32330;51.936;7.184;2023-09-18T03:04:06;20.30;99.90
46608;DHT22;32330;51.936;7.184;2023-09-18T03:06:38;20.30;99.90
46608;DHT22;32330;51.936;7.184;2023-09-18T03:09:05;20.30;99.90
46608;DHT22;32330;51.936;7.184;2023-09-18T03:11:32;20.30;99.90
46608;DHT22;32330;51.936;7.184;2023-09-18T03:13:59;20.30;99.90
46608;DHT22;32330;51.936;7.184;2023-09-18T03:16:26;20.30;99.90
46608;DHT22;32330;51.936;7.184;2023-09-18T03:18:56;20.40;99.90
46608;DHT22;32330;51.936;7.184;2023-09-18T03:21:23;20.40;99.90
46608;DHT22;32330;51.936;7.184;2023-09-18T03:23:52;20.30;99.90
46608;DHT22;32330;51.936;7.184;2023-09-18T03:26:19;20.40;99.90
46608;DHT22;32330;51.936;7.184;2023-09-18T03:28:46;20.40;99.90
46608;DHT22;32330;51.936;7.184;2023-09-18T03:31:13;20.40;99.90
46608;DHT22;32330;51.936;7.184;2023-09-18T03:33:40;20.40;99.90
46608;DHT22;32330;51.936;7.184;2023-09-18T03:36:07;20.40;99.90
46608;DHT22;32330;51.936;7.184;2023-09-18T03:38:37;20.40;99.90
46608;DHT22;32330;51.936;7.184;2023-09-18T03:41:06;20.40;99.90
46608;DHT22;32330;51.936;7.184;2023-09-18T03:43:33;20.40;99.90
46608;DHT22;32330;51.936;7.184;2023-09-18T03:46:04;20.40;99.90
46608;DHT22;32330;51.936;7.184;2023-09-18T03:48:39;20.40;99.90
46608;DHT22;32330;51.936;7.184;2023-09-18T03:51:06;20.40;99.90
46608;DHT22;32330;51.936;7.184;2023-09-18T03:53:33;20.40;99.90
46608;DHT22;32330;51.936;7.184;2023-09-18T03:56:00;20.40;99.90
46608;DHT22;32330;51.936;7.184;2023-09-18T03:58:29;20.40;99.90
46608;DHT22;32330;51.936;7.184;2023-09-18T04:00:56;20.40;99.90
46608;DHT22;32330;51.936;7.184;2023-09-18T04:03:23;20.40;99.90
46608;DHT22;32330;51.936;7.184;2023-09-18T04:05:50;20.30;99.90
46608;DHT22;32330;51.936;7.184;2023-09-18T04:08:17;20.30;99.90
46608;DHT22;32330;51.936;7.184;2023-09-18T04:10:44;20.30;99.90
46608;DHT22;32330;51.936;7.184;2023-09-18T04:13:12;20.30;99.90
46608;DHT22;32330;51.936;7.184;2023-09-18T04:15:40;20.20;99.90
46608;DHT22;32330;51.936;7.184;2023-09-18T04:18:07;20.20;99.90
46608;DHT22;32330;51.936;7.184;2023-09-18T04:20:34;20.20;99.90
46608;DHT22;32330;51.936;7.184;2023-09-18T04:23:19;20.20;99.90
46608;DHT22;32330;51.936;7.184;2023-09-18T04:25:46;20.20;99.90
46608;DHT22;32330;51.936;7.184;2023-09-18T04:28:13;20.20;99.90
46608;DHT22;32330;51.936;7.184;2023-09-18T04:30:41;20.20;99.90
46608;DHT22;32330;51.936;7.184;2023-09-18T04:33:08;20.20;99.90
46608;DHT22;32330;51.936;7.184;2023-09-18T04:35:36;20.20;99.90
46608;DHT22;32330;51.936;7.184;2023-09-18T04:38:06;20.20;99.90
46608;DHT22;32330;51.936;7.184;2023-09-18T04:40:34;20.20;99.90
46608;DHT22;32330;51.936;7.184;2023-09-18T04:43:01;20.20;99.90
46608;DHT22;32330;51.936;7.184;2023-09-18T04:45:30;20.20;99.90
46608;DHT22;32330;51.936;7.184;2023-09-18T04:47:59;20.20;99.90
46608;DHT22;32330;51.936;7.184;2023-09-18T04:50:26;20.20;99.90
46608;DHT22;32330;51.936;7.184;2023-09-18T04:52:53;20.20;99.90
46608;DHT22;32330;51.936;7.184;2023-09-18T04:55:23;20.20;99.90
46608;DHT22;32330;51.936;7.184;2023-09-18T04:57:50;20.20;99.90
46608;DHT22;32330;51.936;7.184;2023-09-18T05:00:18;20.30;99.90
46608;DHT22;32330;51.936;7.184;2023-09-18T05:02:49;20.30;99.90
46608;DHT22;32330;51.936;7.184;2023-09-18T05:05:18;20.20;99.90
46608;DHT22;32330;51.936;7.184;2023-09-18T05:07:46;20.20;99.90
46608;DHT22;32330;51.936;7.184;2023-09-18T05:10:13;20.20;99.90
46608;DHT22;32330;51.936;7.184;2023-09-18T05:12:40;20.20;99.90
46608;DHT22;32330;51.936;7.184;2023-09-18T05:15:09;20.20;99.90
46608;DHT22;32330;51.936;7.184;2023-09-18T05:17:43;20.20;99.90
46608;DHT22;32330;51.936;7.184;2023-09-18T05:20:13;20.20;99.90
46608;DHT22;32330;51.936;7.184;2023-09-18T05:22:43;20.20;99.90
46608;DHT22;32330;51.936;7.184;2023-09-18T05:25:14;20.20;99.90
46608;DHT22;32330;51.936;7.184;2023-09-18T05:27:41;20.10;77.50
46608;DHT22;32330;51.936;7.184;2023-09-18T05:30:12;20.10;78.50
46608;DHT22;32330;51.936;7.184;2023-09-18T05:32:41;20.10;79.10
46608;DHT22;32330;51.936;7.184;2023-09-18T05:35:09;20.10;76.60
46608;DHT22;32330;51.936;7.184;2023-09-18T05:37:38;20.10;79.80
46608;DHT22;32330;51.936;7.184;2023-09-18T05:40:09;20.10;74.90
46608;DHT22;32330;51.936;7.184;2023-09-18T05:42:36;20.10;78.60
46608;DHT22;32330;51.936;7.184;2023-09-18T05:45:04;20.10;74.90
46608;DHT22;32330;51.936;7.184;2023-09-18T05:47:32;20.20;99.90
46608;DHT22;32330;51.936;7.184;2023-09-18T05:50:01;20.20;99.90
46608;DHT22;32330;51.936;7.184;2023-09-18T05:52:31;20.20;99.90
46608;DHT22;32330;51.936;7.184;2023-09-18T05:54:58;20.20;99.90
46608;DHT22;32330;51.936;7.184;2023-09-18T05:57:26;20.20;99.90
46608;DHT22;32330;51.936;7.184;2023-09-18T05:59:54;20.20;99.90
46608;DHT22;32330;51.936;7.184;2023-09-18T06:02:21;20.20;99.90
46608;DHT22;32330;51.936;7.184;2023-09-18T06:04:49;20.20;99.90
46608;DHT22;32330;51.936;7.184;2023-09-18T06:07:16;20.20;99.90
46608;DHT22;32330;51.936;7.184;2023-09-18T06:09:43;20.20;99.90
46608;DHT22;32330;51.936;7.184;2023-09-18T06:12:10;20.20;99.90
46608;DHT22;32330;51.936;7.184;2023-09-18T06:14:39;20.10;99.90
46608;DHT22;32330;51.936;7.184;2023-09-18T06:17:06;20.20;99.90
46608;DHT22;32330;51.936;7.184;2023-09-18T06:19:33;20.20;99.90
46608;DHT22;32330;51.936;7.184;2023-09-18T06:22:01;20.20;99.90
46608;DHT22;32330;51.936;7.184;2023-09-18T06:24:28;20.20;99.90
46608;DHT22;32330;51.936;7.184;2023-09-18T06:26:55;20.20;99.90
46608;DHT22;32330;51.936;7.184;2023-09-18T06:29:22;20.20;99.90
46608;DHT22;32330;51.936;7.184;2023-09-18T06:31:51;20.30;99.90
46608;DHT22;32330;51.936;7.184;2023-09-18T06:34:18;20.30;99.90
46608;DHT22;32330;51.936;7.184;2023-09-18T06:36:45;20.30;99.90
46608;DHT22;32330;51.936;7.184;2023-09-18T06:39:12;20.30;99.90
46608;DHT22;32330;51.936;7.184;2023-09-18T06:41:39;20.30;99.90
46608;DHT22;32330;51.936;7.184;2023-09-18T06:44:11;20.40;99.90
46608;DHT22;32330;51.936;7.184;2023-09-18T06:46:38;20.40;99.90
46608;DHT22;32330;51.936;7.184;2023-09-18T06:49:07;20.40;99.90
46608;DHT22;32330;51.936;7.184;2023-09-18T06:51:35;20.50;99.90
46608;DHT22;32330;51.936;7.184;2023-09-18T06:54:03;20.40;99.90
46608;DHT22;32330;51.936;7.184;2023-09-18T06:56:30;20.50;99.90
46608;DHT22;32330;51.936;7.184;2023-09-18T06:58:57;20.50;99.90
46608;DHT22;32330;51.936;7.184;2023-09-18T07:01:24;20.50;99.90
46608;DHT22;32330;51.936;7.184;2023-09-18T07:03:53;20.60;99.90
46608;DHT22;32330;51.936;7.184;2023-09-18T07:06:21;20.60;99.90
46608;DHT22;32330;51.936;7.184;2023-09-18T07:08:49;20.60;99.90
46608;DHT22;32330;51.936;7.184;2023-09-18T07:11:16;20.60;99.90
46608;DHT22;32330;51.936;7.184;2023-09-18T07:13:43;20.70;99.90
46608;DHT22;32330;51.936;7.184;2023-09-18T07:16:11;20.70;99.90
46608;DHT22;32330;51.936;7.184;2023-09-18T07:18:38;20.70;99.90
46608;DHT22;32330;51.936;7.184;2023-09-18T07:21:05;20.80;99.90
46608;DHT22;32330;51.936;7.184;2023-09-18T07:23:33;20.80;99.90
46608;DHT22;32330;51.936;7.184;2023-09-18T07:26:02;20.90;99.90
46608;DHT22;32330;51.936;7.184;2023-09-18T07:28:29;20.90;99.90
46608;DHT22;32330;51.936;7.184;2023-09-18T07:30:56;20.90;99.90
46608;DHT22;32330;51.936;7.184;2023-09-18T07:33:23;20.90;99.90
46608;DHT22;32330;51.936;7.184;2023-09-18T07:35:50;20.90;99.90
46608;DHT22;32330;51.936;7.184;2023-09-18T07:38:18;20.90;99.90
46608;DHT22;32330;51.936;7.184;2023-09-18T07:40:47;20.90;99.90
46608;DHT22;32330;51.936;7.184;2023-09-18T07:43:14;21.00;99.90
46608;DHT22;32330;51.936;7.184;2023-09-18T07:45:41;21.00;99.90
46608;DHT22;32330;51.936;7.184;2023-09-18T07:48:08;21.10;99.90
46608;DHT22;32330;51.936;7.184;2023-09-18T07:50:35;21.10;99.90
46608;DHT22;32330;51.936;7.184;2023-09-18T07:53:03;21.10;99.90
46608;DHT22;32330;51.936;7.184;2023-09-18T07:55:30;21.20;99.90
46608;DHT22;32330;51.936;7.184;2023-09-18T07:57:58;21.20;99.90
46608;DHT22;32330;51.936;7.184;2023-09-18T08:00:25;21.30;99.90
46608;DHT22;32330;51.936;7.184;2023-09-18T08:02:54;21.20;99.90
46608;DHT22;32330;51.936;7.184;2023-09-18T08:05:24;21.20;99.90
46608;DHT22;32330;51.936;7.184;2023-09-18T08:07:53;21.20;99.90
46608;DHT22;32330;51.936;7.184;2023-09-18T08:10:22;21.30;99.90
46608;DHT22;32330;51.936;7.184;2023-09-18T08:12:49;21.30;99.90
46608;DHT22;32330;51.936;7.184;2023-09-18T08:15:20;21.30;99.90
46608;DHT22;32330;51.936;7.184;2023-09-18T08:17:47;21.20;99.90
46608;DHT22;32330;51.936;7.184;2023-09-18T08:20:15;21.20;99.90
46608;DHT22;32330;51.936;7.184;2023-09-18T08:22:42;21.10;99.90
46608;DHT22;32330;51.936;7.184;2023-09-18T08:25:10;21.10;99.90
46608;DHT22;32330;51.936;7.184;2023-09-18T08:27:38;21.00;99.90
46608;DHT22;32330;51.936;7.184;2023-09-18T08:30:08;21.10;99.90
46608;DHT22;32330;51.936;7.184;2023-09-18T08:32:38;21.00;99.90
46608;DHT22;32330;51.936;7.184;2023-09-18T08:35:06;21.00;99.90
46608;DHT22;32330;51.936;7.184;2023-09-18T08:37:33;21.10;99.90
46608;DHT22;32330;51.936;7.184;2023-09-18T08:40:01;21.20;99.90
46608;DHT22;32330;51.936;7.184;2023-09-18T08:42:36;21.20;99.90
46608;DHT22;32330;51.936;7.184;2023-09-18T08:45:07;21.20;99.90
46608;DHT22;32330;51.936;7.184;2023-09-18T08:47:35;21.30;99.90
46608;DHT22;32330;51.936;7.184;2023-09-18T08:50:05;21.40;99.90
46608;DHT22;32330;51.936;7.184;2023-09-18T08:52:33;21.40;99.90
46608;DHT22;32330;51.936;7.184;2023-09-18T08:55:01;21.30;99.90
46608;DHT22;32330;51.936;7.184;2023-09-18T08:57:30;21.30;99.90
46608;DHT22;32330;51.936;7.184;2023-09-18T08:59:57;21.30;99.90
46608;DHT22;32330;51.936;7.184;2023-09-18T09:02:27;21.40;99.90
46608;DHT22;32330;51.936;7.184;2023-09-18T09:04:54;21.50;99.90
46608;DHT22;32330;51.936;7.184;2023-09-18T09:07:22;21.60;99.90
46608;DHT22;32330;51.936;7.184;2023-09-18T09:09:49;21.60;99.90
46608;DHT22;32330;51.936;7.184;2023-09-18T09:12:18;21.60;99.90
46608;DHT22;32330;51.936;7.184;2023-09-18T09:15:06;21.60;99.90
46608;DHT22;32330;51.936;7.184;2023-09-18T09:17:33;21.70;99.90
46608;DHT22;32330;51.936;7.184;2023-09-18T09:20:08;21.70;99.90
46608;DHT22;32330;51.936;7.184;2023-09-18T09:22:38;21.80;99.90
46608;DHT22;32330;51.936;7.184;2023-09-18T09:25:22;21.70;99.90
46608;DHT22;32330;51.936;7.184;2023-09-18T09:27:49;21.70;99.90
46608;DHT22;32330;51.936;7.184;2023-09-18T09:30:21;21.70;99.90
46608;DHT22;32330;51.936;7.184;2023-09-18T09:33:00;21.70;99.90
46608;DHT22;32330;51.936;7.184;2023-09-18T09:35:36;21.70;99.90
46608;DHT22;32330;51.936;7.184;2023-09-18T09:38:10;21.80;99.90
46608;DHT22;32330;51.936;7.184;2023-09-18T09:40:39;21.90;99.90
46608;DHT22;32330;51.936;7.184;2023-09-18T09:43:12;21.90;99.90
46608;DHT22;32330;51.936;7.184;2023-09-18T09:45:40;22.00;99.90
46608;DHT22;32330;51.936;7.184;2023-09-18T09:48:08;22.10;99.90
46608;DHT22;32330;51.936;7.184;2023-09-18T09:50:45;22.40;99.90
46608;DHT22;32330;51.936;7.184;2023-09-18T09:53:15;22.50;99.90
46608;DHT22;32330;51.936;7.184;2023-09-18T09:55:44;22.50;99.90
46608;DHT22;32330;51.936;7.184;2023-09-18T09:58:12;22.50;99.90
46608;DHT22;32330;51.936;7.184;2023-09-18T10:00:45;22.40;99.90
46608;DHT22;32330;51.936;7.184;2023-09-18T10:03:17;22.50;99.90
46608;DHT22;32330;51.936;7.184;2023-09-18T10:05:48;22.30;99.90
46608;DHT22;32330;51.936;7.184;2023-09-18T10:08:26;22.50;99.90
46608;DHT22;32330;51.936;7.184;2023-09-18T10:11:05;22.30;99.90
46608;DHT22;32330;51.936;7.184;2023-09-18T10:13:41;22.30;99.90
46608;DHT22;32330;51.936;7.184;2023-09-18T10:16:17;22.20;99.90
46608;DHT22;32330;51.936;7.184;2023-09-18T10:18:56;22.20;99.90
46608;DHT22;32330;51.936;7.184;2023-09-18T10:21:30;22.30;99.90
46608;DHT22;32330;51.936;7.184;2023-09-18T10:24:11;22.50;99.90
46608;DHT22;32330;51.936;7.184;2023-09-18T10:26:51;22.60;99.90
46608;DHT22;32330;51.936;7.184;2023-09-18T10:29:22;22.60;99.90
46608;DHT22;32330;51.936;7.184;2023-09-18T10:31:56;22.60;99.90
46608;DHT22;32330;51.936;7.184;2023-09-18T10:34:25;22.50;99.90
46608;DHT22;32330;51.936;7.184;2023-09-18T10:36:56;22.60;99.90
46608;DHT22;32330;51.936;7.184;2023-09-18T10:39:36;22.80;99.90
46608;DHT22;32330;51.936;7.184;2023-09-18T10:42:08;22.70;99.90
46608;DHT22;32330;51.936;7.184;2023-09-18T10:44:39;22.90;99.90
46608;DHT22;32330;51.936;7.184;2023-09-18T10:47:11;23.00;99.90
46608;DHT22;32330;51.936;7.184;2023-09-18T10:49:46;23.10;99.90
46608;DHT22;32330;51.936;7.184;2023-09-18T10:52:15;23.00;99.90
46608;DHT22;32330;51.936;7.184;2023-09-18T10:54:44;23.30;99.90
46608;DHT22;32330;51.936;7.184;2023-09-18T10:57:11;23.40;99.90
46608;DHT22;32330;51.936;7.184;2023-09-18T10:59:44;23.70;99.90
46608;DHT22;32330;51.936;7.184;2023-09-18T11:02:14;23.80;99.90
46608;DHT22;32330;51.936;7.184;2023-09-18T11:04:45;24.10;99.90
46608;DHT22;32330;51.936;7.184;2023-09-18T11:07:22;24.10;99.90
46608;DHT22;32330;51.936;7.184;2023-09-18T11:09:54;23.80;99.90
46608;DHT22;32330;51.936;7.184;2023-09-18T11:12:45;23.90;99.90
46608;DHT22;32330;51.936;7.184;2023-09-18T11:15:25;23.90;99.90
46608;DHT22;32330;51.936;7.184;2023-09-18T11:17:58;24.20;99.90
46608;DHT22;32330;51.936;7.184;2023-09-18T11:20:27;24.40;99.90
46608;DHT22;32330;51.936;7.184;2023-09-18T11:22:57;24.30;99.90
46608;DHT22;32330;51.936;7.184;2023-09-18T11:25:45;24.30;99.90
46608;DHT22;32330;51.936;7.184;2023-09-18T11:28:22;24.30;99.90
46608;DHT22;32330;51.936;7.184;2023-09-18T11:30:50;24.30;99.90
46608;DHT22;32330;51.936;7.184;2023-09-18T11:33:35;24.60;99.90
46608;DHT22;32330;51.936;7.184;2023-09-18T11:36:08;24.90;99.90
46608;DHT22;32330;51.936;7.184;2023-09-18T11:38:54;25.10;99.90
46608;DHT22;32330;51.936;7.184;2023-09-18T11:41:26;24.80;99.90
46608;DHT22;32330;51.936;7.184;2023-09-18T11:44:32;24.50;99.90
46608;DHT22;32330;51.936;7.184;2023-09-18T11:47:20;24.30;99.90
46608;DHT22;32330;51.936;7.184;2023-09-18T11:49:54;24.40;99.90
46608;DHT22;32330;51.936;7.184;2023-09-18T11:52:24;24.60;99.90
46608;DHT22;32330;51.936;7.184;2023-09-18T11:54:52;24.60;99.90
46608;DHT22;32330;51.936;7.184;2023-09-18T11:57:20;24.80;99.90
46608;DHT22;32330;51.936;7.184;2023-09-18T11:59:48;24.50;99.90
46608;DHT22;32330;51.936;7.184;2023-09-18T12:02:25;24.50;99.90
46608;DHT22;32330;51.936;7.184;2023-09-18T12:04:56;24.50;99.90
46608;DHT22;32330;51.936;7.184;2023-09-18T12:07:31;24.70;99.90
46608;DHT22;32330;51.936;7.184;2023-09-18T12:10:04;24.20;99.90
46608;DHT22;32330;51.936;7.184;2023-09-18T12:12:32;24.10;99.90
46608;DHT22;32330;51.936;7.184;2023-09-18T12:15:01;24.20;99.90
46608;DHT22;32330;51.936;7.184;2023-09-18T12:17:32;24.80;99.90
46608;DHT22;32330;51.936;7.184;2023-09-18T12:19:59;24.50;99.90
46608;DHT22;32330;51.936;7.184;2023-09-18T12:22:29;24.80;99.90
46608;DHT22;32330;51.936;7.184;2023-09-18T12:25:09;25.20;99.90
46608;DHT22;32330;51.936;7.184;2023-09-18T12:27:37;25.20;99.90
46608;DHT22;32330;51.936;7.184;2023-09-18T12:30:08;25.20;99.90
46608;DHT22;32330;51.936;7.184;2023-09-18T12:32:37;24.80;99.90
46608;DHT22;32330;51.936;7.184;2023-09-18T12:35:06;24.70;99.90
46608;DHT22;32330;51.936;7.184;2023-09-18T12:37:34;24.80;99.90
46608;DHT22;32330;51.936;7.184;2023-09-18T12:40:04;24.70;99.90
46608;DHT22;32330;51.936;7.184;2023-09-18T12:42:37;24.80;99.90
46608;DHT22;32330;51.936;7.184;2023-09-18T12:45:08;25.00;99.90
46608;DHT22;32330;51.936;7.184;2023-09-18T12:47:35;24.90;99.90
46608;DHT22;32330;51.936;7.184;2023-09-18T12:50:05;24.80;99.90
46608;DHT22;32330;51.936;7.184;2023-09-18T12:52:33;24.60;99.90
46608;DHT22;32330;51.936;7.184;2023-09-18T12:55:00;24.30;99.90
46608;DHT22;32330;51.936;7.184;2023-09-18T12:57:29;24.50;99.90
46608;DHT22;32330;51.936;7.184;2023-09-18T12:59:56;25.00;99.90
46608;DHT22;32330;51.936;7.184;2023-09-18T13:02:25;24.80;99.90
46608;DHT22;32330;51.936;7.184;2023-09-18T13:04:53;24.50;99.90
46608;DHT22;32330;51.936;7.184;2023-09-18T13:07:23;24.60;99.90
46608;DHT22;32330;51.936;7.184;2023-09-18T13:09:59;24.50;99.90
46608;DHT22;32330;51.936;7.184;2023-09-18T13:12:39;24.50;99.90
46608;DHT22;32330;51.936;7.184;2023-09-18T13:15:07;24.60;99.90
46608;DHT22;32330;51.936;7.184;2023-09-18T13:17:39;24.50;99.90
46608;DHT22;32330;51.936;7.184;2023-09-18T13:20:10;24.50;99.90
46608;DHT22;32330;51.936;7.184;2023-09-18T13:22:40;24.40;99.90
46608;DHT22;32330;51.936;7.184;2023-09-18T13:25:08;24.30;99.90
46608;DHT22;32330;51.936;7.184;2023-09-18T13:27:36;24.40;99.90
46608;DHT22;32330;51.936;7.184;2023-09-18T13:30:06;24.40;99.90
46608;DHT22;32330;51.936;7.184;2023-09-18T13:32:35;24.90;99.90
46608;DHT22;32330;51.936;7.184;2023-09-18T13:35:04;25.00;99.90
46608;DHT22;32330;51.936;7.184;2023-09-18T13:37:32;24.70;99.90
46608;DHT22;32330;51.936;7.184;2023-09-18T13:40:01;24.70;99.90
46608;DHT22;32330;51.936;7.184;2023-09-18T13:42:32;24.70;99.90
46608;DHT22;32330;51.936;7.184;2023-09-18T13:44:59;24.60;99.90
46608;DHT22;32330;51.936;7.184;2023-09-18T13:47:27;24.60;99.90
46608;DHT22;32330;51.936;7.184;2023-09-18T13:49:54;24.60;99.90
46608;DHT22;32330;51.936;7.184;2023-09-18T13:52:26;24.40;99.90
46608;DHT22;32330;51.936;7.184;2023-09-18T13:54:56;24.40;99.90
46608;DHT22;32330;51.936;7.184;2023-09-18T13:57:24;24.30;99.90
46608;DHT22;32330;51.936;7.184;2023-09-18T13:59:51;24.40;99.90
46608;DHT22;32330;51.936;7.184;2023-09-18T14:02:26;24.20;99.90
46608;DHT22;32330;51.936;7.184;2023-09-18T14:04:59;24.20;99.90
46608;DHT22;32330;51.936;7.184;2023-09-18T14:07:46;24.70;99.90
46608;DHT22;32330;51.936;7.184;2023-09-18T14:10:19;25.10;99.90
46608;DHT22;32330;51.936;7.184;2023-09-18T14:13:04;25.10;99.90
46608;DHT22;32330;51.936;7.184;2023-09-18T14:15:39;25.20;99.90
46608;DHT22;32330;51.936;7.184;2023-09-18T14:18:13;25.30;99.90
46608;DHT22;32330;51.936;7.184;2023-09-18T14:20:54;25.50;99.70
46608;DHT22;32330;51.936;7.184;2023-09-18T14:23:22;25.60;99.90
46608;DHT22;32330;51.936;7.184;2023-09-18T14:25:50;25.10;99.90
46608;DHT22;32330;51.936;7.184;2023-09-18T14:28:17;25.40;99.90
46608;DHT22;32330;51.936;7.184;2023-09-18T14:30:44;25.40;99.90
46608;DHT22;32330;51.936;7.184;2023-09-18T14:33:11;25.20;98.60
46608;DHT22;32330;51.936;7.184;2023-09-18T14:35:40;25.30;99.50
46608;DHT22;32330;51.936;7.184;2023-09-18T14:38:07;25.30;98.90
46608;DHT22;32330;51.936;7.184;2023-09-18T14:40:36;25.40;98.40
46608;DHT22;32330;51.936;7.184;2023-09-18T14:43:03;25.30;98.50
46608;DHT22;32330;51.936;7.184;2023-09-18T14:45:33;25.20;98.30
46608;DHT22;32330;51.936;7.184;2023-09-18T14:48:02;25.10;97.90
46608;DHT22;32330;51.936;7.184;2023-09-18T14:50:29;25.20;99.10
46608;DHT22;32330;51.936;7.184;2023-09-18T14:52:56;25.20;99.00
46608;DHT22;32330;51.936;7.184;2023-09-18T14:55:23;25.10;98.90
46608;DHT22;32330;51.936;7.184;2023-09-18T14:57:51;25.20;98.30
46608;DHT22;32330;51.936;7.184;2023-09-18T15:00:18;25.40;97.80
46608;DHT22;32330;51.936;7.184;2023-09-18T15:02:46;25.30;97.80
46608;DHT22;32330;51.936;7.184;2023-09-18T15:05:14;25.20;97.80
46608;DHT22;32330;51.936;7.184;2023-09-18T15:07:43;25.10;97.50
46608;DHT22;32330;51.936;7.184;2023-09-18T15:10:10;25.20;97.70
46608;DHT22;32330;51.936;7.184;2023-09-18T15:12:38;25.30;97.10
46608;DHT22;32330;51.936;7.184;2023-09-18T15:15:14;25.20;96.50
46608;DHT22;32330;51.936;7.184;2023-09-18T15:17:46;25.40;97.10
46608;DHT22;32330;51.936;7.184;2023-09-18T15:20:20;25.40;96.90
46608;DHT22;32330;51.936;7.184;2023-09-18T15:22:49;25.60;97.10
46608;DHT22;32330;51.936;7.184;2023-09-18T15:25:17;25.60;97.00
46608;DHT22;32330;51.936;7.184;2023-09-18T15:27:45;25.50;96.50
46608;DHT22;32330;51.936;7.184;2023-09-18T15:30:14;25.40;95.70
46608;DHT22;32330;51.936;7.184;2023-09-18T15:32:49;25.40;96.10
46608;DHT22;32330;51.936;7.184;2023-09-18T15:35:16;25.50;96.00
46608;DHT22;32330;51.936;7.184;2023-09-18T15:37:44;25.30;96.50
46608;DHT22;32330;51.936;7.184;2023-09-18T15:40:12;25.30;95.40
46608;DHT22;32330;51.936;7.184;2023-09-18T15:42:41;25.20;95.80
46608;DHT22;32330;51.936;7.184;2023-09-18T15:45:10;25.20;95.70